createdAt,value
2019-02-27T00:00:29.017Z,1.04
2019-02-27T00:03:20.789Z,1.08
2019-02-27T00:06:12.898Z,1.19
2019-02-27T00:09:04.606Z,1.41
2019-02-27T00:11:52.357Z,1.29
2019-02-27T00:14:40.707Z,0.76
2019-02-27T00:17:31.273Z,0.72
2019-02-27T00:20:18.686Z,0.88
2019-02-27T00:23:06.691Z,1.23
2019-02-27T00:25:54.457Z,1.15
2019-02-27T00:28:42.757Z,1.07
2019-02-27T00:31:30.860Z,0.81
2019-02-27T00:34:18.953Z,0.53
2019-02-27T00:37:07.453Z,0.68
2019-02-27T00:39:56.204Z,0.69
2019-02-27T00:42:47.788Z,0.75
2019-02-27T00:45:39.685Z,0.64
2019-02-27T00:48:26.272Z,0.53
2019-02-27T00:51:15.843Z,0.58
2019-02-27T00:54:04.673Z,0.37
2019-02-27T00:56:55.213Z,0.33
2019-02-27T00:59:48.345Z,0.36
2019-02-27T01:02:39.264Z,0.29
2019-02-27T01:05:27.197Z,0.31
2019-02-27T01:08:15.526Z,0.27
2019-02-27T01:11:04.174Z,0.40
2019-02-27T01:13:55.400Z,0.25
2019-02-27T01:16:44.780Z,0.26
2019-02-27T01:19:32.766Z,0.24
2019-02-27T01:22:22.574Z,0.20
2019-02-27T01:25:10.803Z,0.17
2019-02-27T01:27:58.800Z,0.25
2019-02-27T01:30:46.643Z,0.31
2019-02-27T01:33:37.795Z,0.25
2019-02-27T01:36:24.617Z,0.38
2019-02-27T01:39:13.542Z,0.29
2019-02-27T01:42:01.658Z,0.12
2019-02-27T01:44:50.922Z,0.05
2019-02-27T01:47:42.225Z,0.27
2019-02-27T01:50:34.547Z,0.40
2019-02-27T01:53:22.699Z,0.26
2019-02-27T01:56:11.115Z,0.17
2019-02-27T01:58:59.496Z,0.30
2019-02-27T02:01:47.322Z,0.19
2019-02-27T02:04:35.468Z,0.20
2019-02-27T02:07:23.498Z,0.13
2019-02-27T02:10:12.186Z,-0.06
2019-02-27T02:13:02.533Z,-0.14
2019-02-27T02:15:58.123Z,-0.14
2019-02-27T02:19:24.511Z,-0.27
2019-02-27T02:22:19.292Z,-0.27
2019-02-27T02:25:28.626Z,-0.24
2019-02-27T02:28:29.771Z,-0.06
2019-02-27T02:31:55.084Z,-0.09
2019-02-27T02:34:47.999Z,-0.05
2019-02-27T02:37:49.512Z,-0.75
2019-02-27T02:41:07.981Z,-0.51
2019-02-27T02:44:12.079Z,-0.84
2019-02-27T02:47:13.091Z,-1.09
2019-02-27T02:50:26.747Z,-1.00
2019-02-27T02:53:34.216Z,-0.91
2019-02-27T02:56:43.711Z,-0.68
2019-02-27T02:59:49.782Z,-0.87
2019-02-27T03:02:40.828Z,-0.88
2019-02-27T03:05:35.547Z,-0.72
2019-02-27T03:08:42.327Z,-0.77
2019-02-27T03:12:04.668Z,-0.81
2019-02-27T03:15:15.590Z,-0.73
2019-02-27T03:18:31.612Z,-0.50
2019-02-27T03:21:39.373Z,-0.47
2019-02-27T03:24:40.909Z,-0.72
2019-02-27T03:27:51.057Z,-0.96
2019-02-27T03:30:51.822Z,-0.81
2019-02-27T03:33:51.980Z,-0.80
2019-02-27T03:37:17.523Z,-0.86
2019-02-27T03:40:23.060Z,-0.86
2019-02-27T03:43:14.330Z,-0.79
2019-02-27T03:46:24.124Z,-0.85
2019-02-27T03:49:23.791Z,-1.06
2019-02-27T03:52:37.411Z,-0.88
2019-02-27T03:55:34.277Z,-1.18
2019-02-27T03:58:41.260Z,-1.21
2019-02-27T04:01:46.948Z,-1.06
2019-02-27T04:04:42.383Z,-1.12
2019-02-27T04:08:08.524Z,-1.07
2019-02-27T04:10:54.538Z,-1.14
2019-02-27T04:13:42.889Z,-1.09
2019-02-27T04:16:32.123Z,-1.13
2019-02-27T04:19:20.083Z,-1.13
2019-02-27T04:22:07.982Z,-1.48
2019-02-27T04:24:56.840Z,-1.42
2019-02-27T04:27:45.882Z,-1.37
2019-02-27T04:30:33.759Z,-1.46
2019-02-27T04:33:23.269Z,-1.38
2019-02-27T04:36:12.851Z,-1.33
2019-02-27T04:39:02.503Z,-1.25
2019-02-27T04:41:51.988Z,-1.16
2019-02-27T04:44:39.626Z,-1.16
2019-02-27T04:47:29.182Z,-1.14
2019-02-27T04:50:18.486Z,-0.76
2019-02-27T04:53:06.993Z,-0.57
2019-02-27T04:55:55.411Z,-0.66
2019-02-27T04:58:43.748Z,-0.70
2019-02-27T05:01:36.412Z,-0.83
2019-02-27T05:04:21.249Z,-1.28
2019-02-27T05:07:09.788Z,-1.32
2019-02-27T05:09:58.147Z,-1.38
2019-02-27T05:12:48.204Z,-1.59
2019-02-27T05:15:38.881Z,-1.61
2019-02-27T05:18:29.252Z,-1.35
2019-02-27T05:21:18.950Z,-1.16
2019-02-27T05:24:05.233Z,-0.94
2019-02-27T05:26:53.221Z,-0.81
2019-02-27T05:29:40.963Z,-0.67
2019-02-27T05:32:28.938Z,-0.57
2019-02-27T05:35:17.532Z,-0.50
2019-02-27T05:38:05.884Z,-0.45
2019-02-27T05:40:53.939Z,-0.62
2019-02-27T05:43:42.054Z,-0.55
2019-02-27T05:46:30.584Z,-1.02
2019-02-27T05:49:18.973Z,-1.38
2019-02-27T05:52:08.309Z,-1.27
2019-02-27T05:55:14.529Z,-0.70
2019-02-27T05:58:01.183Z,-0.77
2019-02-27T06:00:49.452Z,-0.23
2019-02-27T06:03:37.173Z,-0.14
2019-02-27T06:06:25.519Z,-0.02
2019-02-27T06:09:13.992Z,0.02
2019-02-27T06:12:06.653Z,0.09
2019-02-27T06:14:54.843Z,0.07
2019-02-27T06:17:43.321Z,0.12
2019-02-27T06:20:30.126Z,0.15
2019-02-27T06:23:18.516Z,0.22
2019-02-27T06:26:06.711Z,0.13
2019-02-27T06:28:55.181Z,0.35
2019-02-27T06:31:43.578Z,0.37
2019-02-27T06:34:31.993Z,0.46
2019-02-27T06:37:20.471Z,0.58
2019-02-27T06:40:09.806Z,0.51
2019-02-27T06:42:58.299Z,0.53
2019-02-27T06:45:46.663Z,0.59
2019-02-27T06:48:34.923Z,0.71
2019-02-27T06:51:23.097Z,0.82
2019-02-27T06:54:12.859Z,0.91
2019-02-27T06:57:01.218Z,1.06
2019-02-27T06:59:49.600Z,1.20
2019-02-27T07:02:38.075Z,1.01
2019-02-27T07:05:26.479Z,0.92
2019-02-27T07:08:14.988Z,1.14
2019-02-27T07:11:10.822Z,1.16
2019-02-27T07:13:51.964Z,1.30
2019-02-27T07:16:39.719Z,1.32
2019-02-27T07:19:28.308Z,1.56
2019-02-27T07:22:16.697Z,1.62
2019-02-27T07:25:06.704Z,1.78
2019-02-27T07:27:54.883Z,1.94
2019-02-27T07:30:43.263Z,1.88
2019-02-27T07:33:31.462Z,1.91
2019-02-27T07:36:19.825Z,2.02
2019-02-27T07:39:07.436Z,2.06
2019-02-27T07:41:54.892Z,2.08
2019-02-27T07:44:43.588Z,1.96
2019-02-27T07:47:31.256Z,1.78
2019-02-27T07:50:19.393Z,1.77
2019-02-27T07:53:07.802Z,1.65
2019-02-27T07:55:56.876Z,1.70
2019-02-27T07:58:45.374Z,1.62
2019-02-27T08:01:43.288Z,1.78
2019-02-27T08:04:23.069Z,1.93
2019-02-27T08:07:13.114Z,2.26
2019-02-27T08:10:04.630Z,2.37
2019-02-27T08:12:55.515Z,2.62
2019-02-27T08:15:43.673Z,2.65
2019-02-27T08:18:36.540Z,2.46
2019-02-27T08:21:23.476Z,2.80
2019-02-27T08:24:14.353Z,2.84
2019-02-27T08:27:04.251Z,3.07
2019-02-27T08:29:53.564Z,3.16
2019-02-27T08:32:42.778Z,3.11
2019-02-27T08:35:32.429Z,3.11
2019-02-27T08:38:23.500Z,3.11
2019-02-27T08:41:12.637Z,3.04
2019-02-27T08:44:01.652Z,2.96
2019-02-27T08:46:50.730Z,3.08
2019-02-27T08:49:40.043Z,3.07
2019-02-27T08:52:29.301Z,3.06
2019-02-27T08:55:22.062Z,3.01
2019-02-27T08:58:11.337Z,2.97
2019-02-27T09:01:01.644Z,3.01
2019-02-27T09:03:50.281Z,2.84
2019-02-27T09:06:39.290Z,2.89
2019-02-27T09:09:28.570Z,2.99
2019-02-27T09:12:17.752Z,3.27
2019-02-27T09:15:07.344Z,3.42
2019-02-27T09:17:59.233Z,3.23
2019-02-27T09:20:48.198Z,3.48
2019-02-27T09:23:37.721Z,3.48
2019-02-27T09:26:26.344Z,4.23
2019-02-27T09:29:18.390Z,4.32
2019-02-27T09:32:06.267Z,4.06
2019-02-27T09:34:57.019Z,4.32
2019-02-27T09:37:48.263Z,4.17
2019-02-27T09:40:38.906Z,4.05
2019-02-27T09:43:28.500Z,4.19
2019-02-27T09:46:19.522Z,4.42
2019-02-27T09:49:09.259Z,4.26
2019-02-27T09:51:59.015Z,4.26
2019-02-27T09:54:48.451Z,4.21
2019-02-27T09:57:38.151Z,4.54
2019-02-27T10:00:33.588Z,4.41
2019-02-27T10:03:21.862Z,4.41
2019-02-27T10:06:10.068Z,4.33
2019-02-27T10:08:59.924Z,4.57
2019-02-27T10:11:48.062Z,4.63
2019-02-27T10:14:36.187Z,4.27
2019-02-27T10:17:23.965Z,3.88
2019-02-27T10:20:12.392Z,4.08
2019-02-27T10:23:00.582Z,4.30
2019-02-27T10:25:49.947Z,4.16
2019-02-27T10:28:39.615Z,4.43
2019-02-27T10:31:27.900Z,4.24
2019-02-27T10:34:17.613Z,4.39
2019-02-27T10:37:05.440Z,4.67
2019-02-27T10:39:53.577Z,4.84
2019-02-27T10:42:41.798Z,4.74
2019-02-27T10:45:29.776Z,4.70
2019-02-27T10:48:18.222Z,4.61
2019-02-27T10:51:09.557Z,4.57
2019-02-27T10:53:55.727Z,4.55
2019-02-27T10:56:44.171Z,4.70
2019-02-27T10:59:32.179Z,4.60
2019-02-27T11:02:23.464Z,4.68
2019-02-27T11:05:15.125Z,4.78
2019-02-27T11:08:01.691Z,4.95
2019-02-27T11:10:49.687Z,4.82
2019-02-27T11:13:38.273Z,4.86
2019-02-27T11:16:27.979Z,4.82
2019-02-27T11:19:16.623Z,4.93
2019-02-27T11:22:05.481Z,5.12
2019-02-27T11:24:53.185Z,5.34
2019-02-27T11:27:41.084Z,4.84
2019-02-27T11:30:35.816Z,5.23
2019-02-27T11:33:25.466Z,5.14
2019-02-27T11:36:09.652Z,5.10
2019-02-27T11:38:59.298Z,4.86
2019-02-27T11:41:53.168Z,4.88
2019-02-27T11:44:41.227Z,4.84
2019-02-27T11:47:29.617Z,4.92
2019-02-27T11:50:18.694Z,4.81
2019-02-27T11:53:07.100Z,4.64
2019-02-27T11:55:55.419Z,4.32
2019-02-27T11:58:43.848Z,4.60
2019-02-27T12:01:32.226Z,4.75
2019-02-27T12:04:20.609Z,4.77
2019-02-27T12:07:08.942Z,4.81
2019-02-27T12:09:56.656Z,4.89
2019-02-27T12:12:44.524Z,4.87
2019-02-27T12:15:33.173Z,4.92
2019-02-27T12:18:20.897Z,4.80
2019-02-27T12:21:09.287Z,4.62
2019-02-27T12:23:57.655Z,4.47
2019-02-27T12:26:46.110Z,4.41
2019-02-27T12:29:34.249Z,4.37
2019-02-27T12:32:22.734Z,4.35
2019-02-27T12:35:12.259Z,4.36
2019-02-27T12:38:00.133Z,4.22
2019-02-27T12:40:48.325Z,4.40
2019-02-27T12:43:36.445Z,4.46
2019-02-27T12:46:24.745Z,4.30
2019-02-27T12:49:13.211Z,4.36
2019-02-27T12:52:01.667Z,4.29
2019-02-27T12:54:50.012Z,4.22
2019-02-27T12:57:37.669Z,4.22
2019-02-27T13:00:26.825Z,4.22
2019-02-27T13:03:14.754Z,4.24
2019-02-27T13:06:02.911Z,4.28
2019-02-27T13:08:52.915Z,4.52
2019-02-27T13:11:42.016Z,4.59
2019-02-27T13:14:11.611Z,4.73
2019-02-27T13:16:41.363Z,4.83
2019-02-27T13:19:11.256Z,4.91
2019-02-27T13:21:41.003Z,5.27
2019-02-27T13:24:15.009Z,5.66
2019-02-27T13:26:42.173Z,5.87
2019-02-27T13:29:11.911Z,5.92
2019-02-27T13:31:41.650Z,5.75
2019-02-27T13:34:13.924Z,5.78
2019-02-27T13:36:43.072Z,6.16
2019-02-27T13:39:12.806Z,6.80
2019-02-27T13:41:45.675Z,7.77
2019-02-27T13:44:13.955Z,8.47
2019-02-27T13:46:43.684Z,9.47
2019-02-27T13:49:14.609Z,10.17
2019-02-27T13:55:28.319Z,11.32
2019-02-27T13:58:03.294Z,10.51
2019-02-27T14:00:33.628Z,9.45
2019-02-27T14:03:03.489Z,9.08
2019-02-27T14:05:36.019Z,8.08
2019-02-27T14:08:04.941Z,8.31
2019-02-27T14:10:34.803Z,8.16
2019-02-27T14:13:08.805Z,7.42
2019-02-27T14:15:36.072Z,7.27
2019-02-27T14:18:05.814Z,7.18
2019-02-27T14:20:35.555Z,7.01
2019-02-27T14:23:05.328Z,6.30
2019-02-27T14:25:40.196Z,6.11
2019-02-27T14:28:10.018Z,5.92
2019-02-27T14:30:41.384Z,5.79
2019-02-27T14:33:11.188Z,5.37
2019-02-27T14:35:41.016Z,5.43
2019-02-27T14:38:10.746Z,5.04
2019-02-27T14:40:41.265Z,4.96
2019-02-27T14:43:11.309Z,5.04
2019-02-27T14:45:42.019Z,4.62
2019-02-27T14:48:11.758Z,4.78
2019-02-27T14:50:41.539Z,5.18
2019-02-27T14:53:11.280Z,5.18
2019-02-27T14:55:41.018Z,5.09
2019-02-27T14:58:10.801Z,5.15
2019-02-27T15:00:41.215Z,5.15
2019-02-27T15:03:11.198Z,4.98
2019-02-27T15:05:44.719Z,4.92
2019-02-27T15:08:13.285Z,4.82
2019-02-27T15:10:43.091Z,4.81
2019-02-27T15:13:12.821Z,4.91
2019-02-27T15:15:43.739Z,4.95
2019-02-27T15:18:14.088Z,5.16
2019-02-27T15:20:44.203Z,5.13
2019-02-27T15:23:13.935Z,4.98
2019-02-27T15:25:43.747Z,4.93
2019-02-27T15:28:13.533Z,4.76
2019-02-27T15:30:46.443Z,4.86
2019-02-27T15:33:16.385Z,4.74
2019-02-27T15:35:46.124Z,4.69
2019-02-27T15:38:15.865Z,4.77
2019-02-27T15:40:45.797Z,4.85
2019-02-27T15:43:17.474Z,4.92
2019-02-27T15:45:47.903Z,4.87
2019-02-27T15:48:18.304Z,4.68
2019-02-27T15:50:48.044Z,4.50
2019-02-27T15:53:17.785Z,4.60
2019-02-27T15:55:47.667Z,4.43
2019-02-27T15:58:17.460Z,4.28
2019-02-27T16:00:52.284Z,4.13
2019-02-27T16:03:19.020Z,4.03
2019-02-27T16:05:50.641Z,4.09
2019-02-27T16:08:23.452Z,4.01
2019-02-27T16:10:54.919Z,3.93
2019-02-27T16:13:23.223Z,3.86
2019-02-27T16:15:53.451Z,3.84
2019-02-27T16:18:23.358Z,3.72
2019-02-27T16:20:53.148Z,3.63
2019-02-27T16:23:22.905Z,3.64
2019-02-27T16:25:53.735Z,3.44
2019-02-27T16:28:24.044Z,3.29
2019-02-27T16:30:53.785Z,3.08
2019-02-27T16:33:23.885Z,2.97
2019-02-27T16:35:54.548Z,2.81
2019-02-27T16:38:24.775Z,2.72
2019-02-27T16:40:54.564Z,2.59
2019-02-27T16:43:24.326Z,2.54
2019-02-27T16:45:54.321Z,2.25
2019-02-27T16:48:25.733Z,1.97
2019-02-27T16:50:57.461Z,2.01
2019-02-27T16:53:27.133Z,2.09
2019-02-27T16:55:56.936Z,2.06
2019-02-27T16:58:32.813Z,1.95
2019-02-27T17:00:58.197Z,1.86
2019-02-27T17:03:27.932Z,1.87
2019-02-27T17:05:57.690Z,1.80
2019-02-27T17:08:28.333Z,1.70
2019-02-27T17:10:59.701Z,1.79
2019-02-27T17:13:29.724Z,1.41
2019-02-27T17:15:59.507Z,1.01
2019-02-27T17:18:29.332Z,1.08
2019-02-27T17:20:59.111Z,1.07
2019-02-27T17:23:28.961Z,1.09
2019-02-27T17:26:03.399Z,1.05
2019-02-27T17:28:30.254Z,1.23
2019-02-27T17:31:01.847Z,1.41
2019-02-27T17:33:31.952Z,1.23
2019-02-27T17:36:01.698Z,0.96
2019-02-27T17:38:31.533Z,0.86
2019-02-27T17:41:01.316Z,1.12
2019-02-27T17:43:31.055Z,1.34
2019-02-27T17:46:00.985Z,1.32
2019-02-27T17:48:30.749Z,1.26
2019-02-27T17:51:05.808Z,1.15
2019-02-27T17:53:31.952Z,1.36
2019-02-27T17:56:01.687Z,1.25
2019-02-27T17:58:34.847Z,0.89
2019-02-27T18:01:04.537Z,0.53
2019-02-27T18:03:38.733Z,0.12
2019-02-27T18:06:06.020Z,0.53
2019-02-27T18:08:35.748Z,0.62
2019-02-27T18:11:05.488Z,0.90
2019-02-27T18:13:36.158Z,0.79
2019-02-27T18:16:06.280Z,0.64
2019-02-27T18:18:36.032Z,0.50
2019-02-27T18:21:05.882Z,0.43
2019-02-27T18:23:35.916Z,0.37
2019-02-27T18:26:05.755Z,0.34
2019-02-27T18:28:35.639Z,0.16
2019-02-27T18:31:06.382Z,0.18
2019-02-27T18:33:36.371Z,0.18
2019-02-27T18:36:06.432Z,0.21
2019-02-27T18:38:36.213Z,-0.14
2019-02-27T18:41:06.103Z,-0.79
2019-02-27T18:43:36.121Z,-0.97
2019-02-27T18:46:06.015Z,-1.05
2019-02-27T18:48:35.775Z,-1.02
2019-02-27T18:51:06.041Z,-0.88
2019-02-27T18:53:35.794Z,-0.82
2019-02-27T18:56:05.691Z,-1.00
2019-02-27T18:58:35.501Z,-0.76
2019-02-27T19:01:09.522Z,-0.65
2019-02-27T19:03:39.497Z,-0.53
2019-02-27T19:06:12.021Z,-0.71
2019-02-27T19:08:42.419Z,-0.72
2019-02-27T19:11:12.896Z,-0.71
2019-02-27T19:13:43.659Z,-0.73
2019-02-27T19:16:13.806Z,-0.70
2019-02-27T19:18:43.766Z,-0.64
2019-02-27T19:21:13.613Z,-0.69
2019-02-27T19:23:43.370Z,-0.83
2019-02-27T19:26:13.255Z,-0.76
2019-02-27T19:28:43.021Z,-0.76
2019-02-27T19:31:16.648Z,-0.69
2019-02-27T19:33:45.447Z,-0.72
2019-02-27T19:36:19.429Z,-1.05
2019-02-27T19:38:49.504Z,-1.39
2019-02-27T19:41:19.281Z,-1.31
2019-02-27T19:43:49.170Z,-1.24
2019-02-27T19:46:19.253Z,-1.18
2019-02-27T19:48:49.171Z,-0.97
2019-02-27T19:51:20.270Z,-1.05
2019-02-27T19:53:50.351Z,-1.08
2019-02-27T19:56:20.125Z,-0.99
2019-02-27T19:58:51.157Z,-0.96
2019-02-27T20:01:21.321Z,-0.86
2019-02-27T20:03:51.127Z,-0.94
2019-02-27T20:06:20.900Z,-1.03
2019-02-27T20:08:51.245Z,-0.96
2019-02-27T20:11:22.417Z,-1.06
2019-02-27T20:13:54.031Z,-1.11
2019-02-27T20:16:27.458Z,-1.12
2019-02-27T20:18:58.491Z,-1.08
2019-02-27T20:21:28.831Z,-1.16
2019-02-27T20:24:02.941Z,-1.16
2019-02-27T20:26:44.082Z,-0.78
2019-02-27T20:29:06.254Z,-0.78
2019-02-27T20:31:41.038Z,-1.03
2019-02-27T20:34:11.763Z,-1.17
2019-02-27T20:36:45.462Z,-1.16
2019-02-27T20:39:18.664Z,-1.11
2019-02-27T20:41:52.063Z,-1.16
2019-02-27T20:44:22.132Z,-1.23
2019-02-27T20:46:51.967Z,-1.40
2019-02-27T20:49:21.981Z,-1.39
2019-02-27T20:51:55.245Z,-1.42
2019-02-27T20:54:24.992Z,-1.52
2019-02-27T20:56:55.761Z,-1.46
2019-02-27T20:59:43.668Z,-1.48
2019-02-27T21:02:32.133Z,-1.61
2019-02-27T21:05:21.075Z,-2.46
2019-02-27T21:08:11.952Z,-2.54
2019-02-27T21:10:59.895Z,-2.16
2019-02-27T21:13:53.484Z,-2.52
2019-02-27T21:16:45.620Z,-2.89
2019-02-27T21:19:37.094Z,-2.81
2019-02-27T21:22:27.783Z,-2.48
2019-02-27T21:25:16.585Z,-2.95
2019-02-27T21:28:07.684Z,-3.22
2019-02-27T21:30:55.370Z,-3.32
2019-02-27T21:33:47.112Z,-3.35
2019-02-27T21:36:36.670Z,-3.23
2019-02-27T21:39:25.188Z,-3.22
2019-02-27T21:42:18.612Z,-3.00
2019-02-27T21:45:04.605Z,-2.68
2019-02-27T21:47:53.720Z,-2.50
2019-02-27T21:50:41.747Z,-2.50
2019-02-27T21:53:33.197Z,-2.39
2019-02-27T21:56:21.467Z,-2.35
2019-02-27T21:59:10.041Z,-2.38
2019-02-27T22:01:59.952Z,-2.36
2019-02-27T22:04:48.270Z,-2.22
2019-02-27T22:07:36.039Z,-2.31
2019-02-27T22:10:26.800Z,-2.66
2019-02-27T22:13:15.553Z,-2.69
2019-02-27T22:16:03.948Z,-2.54
2019-02-27T22:18:51.937Z,-2.48
2019-02-27T22:21:40.373Z,-2.92
2019-02-27T22:24:28.572Z,-3.21
2019-02-27T22:27:18.875Z,-3.76
2019-02-27T22:30:08.438Z,-3.51
2019-02-27T22:32:58.051Z,-3.28
2019-02-27T22:35:46.253Z,-3.01
2019-02-27T22:38:34.560Z,-3.29
2019-02-27T22:41:22.403Z,-3.24
2019-02-27T22:44:10.795Z,-3.12
2019-02-27T22:46:59.408Z,-3.12
2019-02-27T22:49:47.595Z,-3.24
2019-02-27T22:52:35.391Z,-3.41
2019-02-27T22:55:23.784Z,-3.53
2019-02-27T22:58:11.948Z,-3.59
2019-02-27T23:01:14.868Z,-3.73
2019-02-27T23:04:02.782Z,-3.55
2019-02-27T23:06:50.838Z,-3.59
2019-02-27T23:09:39.217Z,-3.64
2019-02-27T23:12:27.330Z,-3.50
2019-02-27T23:15:15.989Z,-3.54
2019-02-27T23:18:05.958Z,-3.61
2019-02-27T23:20:55.333Z,-3.66
2019-02-27T23:23:44.171Z,-3.67
2019-02-27T23:26:32.805Z,-3.42
2019-02-27T23:29:20.841Z,-3.47
2019-02-27T23:32:09.187Z,-3.59
2019-02-27T23:34:58.604Z,-3.46
2019-02-27T23:37:47.143Z,-3.88
2019-02-27T23:40:35.611Z,-4.44
2019-02-27T23:43:24.129Z,-4.38
2019-02-27T23:46:12.021Z,-4.05
2019-02-27T23:49:00.280Z,-3.79
2019-02-27T23:51:49.209Z,-3.64
2019-02-27T23:54:37.654Z,-3.66
2019-02-27T23:57:26.065Z,-3.60
